Balaguer, Spain
Current Conditions -  °F | °C
As of 11:30 AM on Sunday 21 Dec 2014 (Local Time) from LERS Reporting Station
Clear Clear  
Wind Chill: 55°   Ceiling: Unl
Heat Index: 55°   Visibility: 6mi
Dew Point: 48°   Wind: 1mph
Humidity: 77%   Direction: NA
Pressure: 30.48"   Gusts: NA
Location:  41.79°N, 0.81°E
Report Text: LERS 211030Z VRB01KT CAVOK 13/09 Q1032
Loading
Personal Weather Stations






























Interactive Weather Map New forecast layout! Learn more

10-Day Weather Forecast

Advertisements
Track Severe Weather on mobile